createdAt,value
2022-11-12T00:00:09.617Z,2.6
2022-11-12T00:03:09.607Z,2.6
2022-11-12T00:06:09.551Z,2.6
2022-11-12T00:09:09.542Z,2.5
2022-11-12T00:12:09.594Z,2.5
2022-11-12T00:15:09.554Z,2.4
2022-11-12T00:18:09.503Z,2.4
2022-11-12T00:21:09.612Z,2.4
2022-11-12T00:24:09.519Z,2.4
2022-11-12T00:27:09.511Z,2.4
2022-11-12T00:30:09.588Z,2.4
2022-11-12T00:33:09.523Z,2.3
2022-11-12T00:36:09.702Z,2.2
2022-11-12T00:39:09.607Z,2.1
2022-11-12T00:42:09.638Z,2.1
2022-11-12T00:45:09.572Z,2.1
2022-11-12T00:48:09.534Z,2.1
2022-11-12T00:51:09.613Z,2.1
2022-11-12T00:54:09.618Z,2
2022-11-12T00:57:09.690Z,1.9
2022-11-12T01:00:09.603Z,1.9
2022-11-12T01:03:09.547Z,1.8
2022-11-12T01:06:09.580Z,1.7
2022-11-12T01:09:09.678Z,1.6
2022-11-12T01:12:09.553Z,1.6
2022-11-12T01:15:09.520Z,1.6
2022-11-12T01:18:09.567Z,1.6
2022-11-12T01:21:09.675Z,1.6
2022-11-12T01:24:09.571Z,1.6
2022-11-12T01:27:09.530Z,1.6
2022-11-12T01:30:09.558Z,1.7
2022-11-12T01:33:09.567Z,1.6
2022-11-12T01:36:09.569Z,1.6
2022-11-12T01:39:09.689Z,1.6
2022-11-12T01:42:09.570Z,1.7
2022-11-12T01:45:09.578Z,1.7
2022-11-12T01:48:09.700Z,1.7
2022-11-12T01:51:09.518Z,1.7
2022-11-12T01:54:09.674Z,1.8
2022-11-12T01:57:09.561Z,1.9
2022-11-12T02:00:09.663Z,1.8
2022-11-12T02:03:09.542Z,1.8
2022-11-12T02:06:09.560Z,1.7
2022-11-12T02:09:09.497Z,1.7
2022-11-12T02:12:09.618Z,1.6
2022-11-12T02:15:09.465Z,1.6
2022-11-12T02:18:09.497Z,1.6
2022-11-12T02:21:09.630Z,1.6
2022-11-12T02:24:09.584Z,1.5
2022-11-12T02:27:09.589Z,1.4
2022-11-12T02:30:09.572Z,1.4
2022-11-12T02:33:09.575Z,1.3
2022-11-12T02:36:09.576Z,1.3
2022-11-12T02:39:09.539Z,1.2
2022-11-12T02:42:09.552Z,1.2
2022-11-12T02:45:09.592Z,1.2
2022-11-12T02:48:09.588Z,1.1
2022-11-12T02:51:09.512Z,1.1
2022-11-12T02:54:09.610Z,1.2
2022-11-12T02:57:09.577Z,1.3
2022-11-12T03:00:09.657Z,1.3
2022-11-12T03:03:09.520Z,1.3
2022-11-12T03:06:09.601Z,1.3
2022-11-12T03:09:09.574Z,1.3
2022-11-12T03:12:09.623Z,1.2
2022-11-12T03:15:09.682Z,1.2
2022-11-12T03:18:09.570Z,1.2
2022-11-12T03:21:09.521Z,1.1
2022-11-12T03:24:09.560Z,1
2022-11-12T03:27:09.536Z,0.9
2022-11-12T03:30:09.575Z,0.9
2022-11-12T03:33:09.513Z,0.9
2022-11-12T03:36:09.556Z,0.9
2022-11-12T03:39:09.503Z,0.8
2022-11-12T03:42:09.547Z,0.8
2022-11-12T03:45:09.586Z,0.7
2022-11-12T03:48:09.586Z,0.8
2022-11-12T03:51:09.569Z,0.9
2022-11-12T03:54:09.523Z,0.9
2022-11-12T03:57:09.556Z,0.9
2022-11-12T04:00:09.651Z,0.9
2022-11-12T04:03:09.604Z,0.9
2022-11-12T04:06:09.532Z,0.9
2022-11-12T04:09:09.531Z,0.9
2022-11-12T04:12:09.542Z,0.9
2022-11-12T04:15:09.567Z,0.9
2022-11-12T04:18:09.570Z,0.8
2022-11-12T04:21:09.692Z,0.7
2022-11-12T04:24:09.574Z,0.6
2022-11-12T04:27:09.572Z,0.6
2022-11-12T04:30:09.547Z,0.6
2022-11-12T04:33:09.564Z,0.6
2022-11-12T04:36:09.564Z,0.6
2022-11-12T04:39:09.570Z,0.6
2022-11-12T04:42:09.606Z,0.5
2022-11-12T04:45:09.593Z,0.6
2022-11-12T04:48:09.521Z,0.5
2022-11-12T04:51:09.548Z,0.4
2022-11-12T04:54:09.560Z,0.4
2022-11-12T04:57:09.512Z,0.4
2022-11-12T05:00:09.689Z,0.3
2022-11-12T05:03:09.526Z,0.2
2022-11-12T05:06:09.560Z,0.3
2022-11-12T05:09:09.540Z,0.2
2022-11-12T05:12:09.625Z,0.2
2022-11-12T05:15:09.583Z,0.1
2022-11-12T05:18:09.548Z,0.1
2022-11-12T05:21:09.505Z,0.1
2022-11-12T05:24:17.790Z,0.1
2022-11-12T05:27:09.516Z,0.1
2022-11-12T05:30:09.527Z,0.1
2022-11-12T05:33:09.558Z,1.9
2022-11-12T05:36:09.520Z,1.9
2022-11-12T05:39:09.628Z,1.8
2022-11-12T05:42:23.392Z,1.9
2022-11-12T05:45:09.481Z,1.9
2022-11-12T05:48:09.553Z,1.9
2022-11-12T05:51:22.989Z,1.8
2022-11-12T05:54:09.537Z,1.7
2022-11-12T05:57:09.501Z,1.7
2022-11-12T06:00:09.595Z,1.7
2022-11-12T06:03:09.736Z,1.9
2022-11-12T06:06:09.579Z,0
2022-11-12T06:09:09.557Z,0.1
2022-11-12T06:12:09.599Z,0
2022-11-12T06:15:09.620Z,0
2022-11-12T06:18:09.510Z,0
2022-11-12T06:21:10.000Z,0.1
2022-11-12T06:24:09.503Z,0.3
2022-11-12T06:27:09.598Z,0.3
2022-11-12T06:30:09.700Z,0.4
2022-11-12T06:33:09.517Z,0.4
2022-11-12T06:36:09.991Z,0.4
2022-11-12T06:39:09.604Z,0.4
2022-11-12T06:42:09.568Z,0.5
2022-11-12T06:45:09.635Z,0.5
2022-11-12T06:48:09.672Z,0.6
2022-11-12T06:51:09.573Z,0.6
2022-11-12T06:54:09.606Z,0.7
2022-11-12T06:57:09.670Z,0.7
2022-11-12T07:00:09.654Z,0.7
2022-11-12T07:03:09.582Z,0.8
2022-11-12T07:06:09.642Z,0.9
2022-11-12T07:09:09.630Z,0.9
2022-11-12T07:12:09.618Z,1.1
2022-11-12T07:15:09.644Z,1.1
2022-11-12T07:18:09.671Z,1.2
2022-11-12T07:21:09.618Z,1.3
2022-11-12T07:24:09.659Z,1.3
2022-11-12T07:27:09.560Z,1.3
2022-11-12T07:30:09.668Z,1.3
2022-11-12T07:33:09.579Z,1.4
2022-11-12T07:36:09.580Z,1.6
2022-11-12T07:39:09.583Z,1.6
2022-11-12T07:42:09.706Z,1.8
2022-11-12T07:45:09.667Z,1.9
2022-11-12T07:48:09.555Z,2.1
2022-11-12T07:51:09.922Z,2.2
2022-11-12T07:54:09.638Z,2.3
2022-11-12T07:57:09.588Z,2.4
2022-11-12T08:00:09.720Z,2.6
2022-11-12T08:03:09.650Z,2.8
2022-11-12T08:06:09.603Z,3.1
2022-11-12T08:09:09.554Z,3.4
2022-11-12T08:12:09.883Z,3.4
2022-11-12T08:15:09.602Z,3.5
2022-11-12T08:18:09.620Z,3.7
2022-11-12T08:21:09.562Z,3.8
2022-11-12T08:24:09.565Z,3.9
2022-11-12T08:27:09.520Z,3.9
2022-11-12T08:30:09.659Z,3.9
2022-11-12T08:33:10.026Z,4.1
2022-11-12T08:36:09.628Z,4.2
2022-11-12T08:39:09.590Z,4.5
2022-11-12T08:42:09.623Z,4.9
2022-11-12T08:45:09.614Z,5.4
2022-11-12T08:48:09.718Z,5.8
2022-11-12T08:51:09.599Z,6.1
2022-11-12T08:54:09.620Z,6.6
2022-11-12T08:57:09.628Z,6.9
2022-11-12T09:00:09.643Z,7
2022-11-12T09:03:09.619Z,7.1
2022-11-12T09:06:09.642Z,7.3
2022-11-12T09:09:09.578Z,7.5
2022-11-12T09:12:26.242Z,7.7
2022-11-12T09:15:46.711Z,7.9
2022-11-12T09:18:09.616Z,8
2022-11-12T09:21:09.588Z,8
2022-11-12T09:24:09.689Z,8.2
2022-11-12T09:27:09.595Z,8.3
2022-11-12T09:30:09.727Z,8.5
2022-11-12T09:33:09.710Z,8.6
2022-11-12T09:36:09.635Z,8.6
2022-11-12T09:39:09.533Z,8.7
2022-11-12T09:42:11.259Z,8.6
2022-11-12T09:45:09.635Z,8.6
2022-11-12T09:48:09.645Z,8.7
2022-11-12T09:51:09.644Z,8.7
2022-11-12T09:54:09.598Z,8.8
2022-11-12T09:57:09.561Z,8.9
2022-11-12T10:00:09.712Z,8.9
2022-11-12T10:03:09.670Z,9
2022-11-12T10:06:21.188Z,9
2022-11-12T10:09:09.556Z,9.1
2022-11-12T10:12:13.510Z,9.3
2022-11-12T10:15:09.627Z,9.4
2022-11-12T10:18:09.628Z,9.4
2022-11-12T10:21:09.623Z,9.4
2022-11-12T10:24:09.820Z,9.5
2022-11-12T10:27:09.628Z,9.8
2022-11-12T10:30:09.688Z,9.9
2022-11-12T10:33:09.556Z,9.8
2022-11-12T10:36:09.759Z,10
2022-11-12T10:39:09.599Z,10.1
2022-11-12T10:42:09.654Z,10.1
2022-11-12T10:45:09.662Z,10.2
2022-11-12T10:48:09.682Z,10.2
2022-11-12T10:51:09.588Z,10.4
2022-11-12T10:54:09.699Z,10.5
2022-11-12T10:57:09.617Z,10.6
2022-11-12T11:00:09.748Z,10.6
2022-11-12T11:03:09.695Z,10.7
2022-11-12T11:06:09.668Z,10.6
2022-11-12T11:09:09.731Z,10.8
2022-11-12T11:12:09.622Z,10.8
2022-11-12T11:15:09.730Z,10.7
2022-11-12T11:18:09.590Z,10.8
2022-11-12T11:21:10.084Z,10.9
2022-11-12T11:24:09.570Z,10.9
2022-11-12T11:27:09.715Z,11.2
2022-11-12T11:30:09.649Z,11.3
2022-11-12T11:33:09.548Z,11.5
2022-11-12T11:36:09.593Z,11.5
2022-11-12T11:39:09.599Z,11.8
2022-11-12T11:42:09.620Z,12.1
2022-11-12T11:45:09.658Z,12.2
2022-11-12T11:48:11.609Z,12.2
2022-11-12T11:51:09.599Z,12.2
2022-11-12T11:54:09.654Z,12.3
2022-11-12T11:57:09.567Z,12
2022-11-12T12:00:09.761Z,12.1
2022-11-12T12:03:10.196Z,12.2
2022-11-12T12:06:09.608Z,12.2
2022-11-12T12:09:09.613Z,12.3
2022-11-12T12:12:09.597Z,12.3
2022-11-12T12:15:09.708Z,12.4
2022-11-12T12:18:09.582Z,12.3
2022-11-12T12:21:09.539Z,12.2
2022-11-12T12:24:09.677Z,12.2
2022-11-12T12:27:09.695Z,12.2
2022-11-12T12:30:09.769Z,12.1
2022-11-12T12:33:09.610Z,12.1
2022-11-12T12:36:09.667Z,12.1
2022-11-12T12:39:09.594Z,12.1
2022-11-12T12:42:09.600Z,12.1
2022-11-12T12:45:09.610Z,12.1
2022-11-12T12:48:09.740Z,12.1
2022-11-12T12:51:09.567Z,12.1
2022-11-12T12:54:09.599Z,12.1
2022-11-12T12:57:09.629Z,12
2022-11-12T13:00:15.680Z,12
2022-11-12T13:03:09.579Z,12
2022-11-12T13:06:09.617Z,11.9
2022-11-12T13:09:09.569Z,11.9
2022-11-12T13:12:09.666Z,11.9
2022-11-12T13:15:09.651Z,11.9
2022-11-12T13:18:16.992Z,11.9
2022-11-12T13:21:09.652Z,11.9
2022-11-12T13:24:10.015Z,11.9
2022-11-12T13:27:09.618Z,12.2
2022-11-12T13:30:10.025Z,12.4
2022-11-12T13:33:16.164Z,12.5
2022-11-12T13:36:09.518Z,12.4
2022-11-12T13:39:17.384Z,12.4
2022-11-12T13:42:09.620Z,12.4
2022-11-12T13:45:09.578Z,12.2
2022-11-12T13:48:09.563Z,12.1
2022-11-12T13:51:09.656Z,11.8
2022-11-12T13:54:09.730Z,11.7
2022-11-12T13:57:16.505Z,11.4
2022-11-12T14:00:09.860Z,11.2
2022-11-12T14:03:09.634Z,11
2022-11-12T14:06:09.632Z,11
2022-11-12T14:09:09.558Z,11
2022-11-12T14:12:09.612Z,11
2022-11-12T14:15:09.674Z,10.9
2022-11-12T14:18:09.592Z,10.8
2022-11-12T14:21:09.613Z,10.7
2022-11-12T14:24:09.632Z,10.7
2022-11-12T14:27:09.684Z,10.6
2022-11-12T14:30:09.652Z,10.4
2022-11-12T14:33:09.609Z,10.1
2022-11-12T14:36:09.787Z,9.9
2022-11-12T14:39:09.576Z,9.6
2022-11-12T14:42:09.659Z,9.4
2022-11-12T14:45:09.686Z,9.4
2022-11-12T14:48:09.737Z,9.3
2022-11-12T14:51:09.683Z,9.3
2022-11-12T14:54:09.600Z,9.2
2022-11-12T14:57:09.546Z,9
2022-11-12T15:00:09.833Z,8.7
2022-11-12T15:03:10.228Z,8.4
2022-11-12T15:06:09.681Z,8.2
2022-11-12T15:09:09.612Z,7.9
2022-11-12T15:12:09.622Z,7.7
2022-11-12T15:15:09.635Z,7.5
2022-11-12T15:18:09.568Z,7.4
2022-11-12T15:21:09.613Z,7.3
2022-11-12T15:24:09.796Z,7.2
2022-11-12T15:27:09.588Z,7.1
2022-11-12T15:30:09.764Z,7.1
2022-11-12T15:33:09.884Z,7
2022-11-12T15:36:09.539Z,6.8
2022-11-12T15:39:09.540Z,6.7
2022-11-12T15:42:09.574Z,6.5
2022-11-12T15:45:09.519Z,6.3
2022-11-12T15:48:09.588Z,6.2
2022-11-12T15:51:09.598Z,6.1
2022-11-12T15:54:09.548Z,5.9
2022-11-12T15:57:09.512Z,5.7
2022-11-12T16:00:17.506Z,5.6
2022-11-12T16:03:09.545Z,5.7
2022-11-12T16:06:18.107Z,5.6
2022-11-12T16:09:09.496Z,5.4
2022-11-12T16:12:09.622Z,5.3
2022-11-12T16:15:09.517Z,5.2
2022-11-12T16:18:09.494Z,4.9
2022-11-12T16:21:09.579Z,4.8
2022-11-12T16:24:09.484Z,4.6
2022-11-12T16:27:09.570Z,4.6
2022-11-12T16:30:09.598Z,4.5
2022-11-12T16:33:09.577Z,4.3
2022-11-12T16:36:09.667Z,4.2
2022-11-12T16:39:09.581Z,4.1
2022-11-12T16:42:09.610Z,4.1
2022-11-12T16:45:09.550Z,4
2022-11-12T16:48:09.636Z,3.9
2022-11-12T16:51:09.586Z,3.9
2022-11-12T16:54:09.642Z,3.8
2022-11-12T16:57:09.475Z,3.7
2022-11-12T17:00:09.614Z,3.6
2022-11-12T17:03:09.621Z,3.6
2022-11-12T17:06:09.623Z,3.4
2022-11-12T17:09:09.546Z,3.3
2022-11-12T17:12:09.571Z,3.2
2022-11-12T17:15:09.609Z,3.2
2022-11-12T17:18:09.524Z,3.1
2022-11-12T17:21:09.535Z,3
2022-11-12T17:24:09.492Z,3.1
2022-11-12T17:27:09.513Z,3.2
2022-11-12T17:30:09.580Z,3.4
2022-11-12T17:33:09.620Z,3.3
2022-11-12T17:36:09.588Z,3.4
2022-11-12T17:39:09.565Z,3.4
2022-11-12T17:42:09.558Z,3.5
2022-11-12T17:45:09.641Z,3.6
2022-11-12T17:48:09.594Z,3.8
2022-11-12T17:51:11.123Z,3.9
2022-11-12T17:54:09.526Z,3.9
2022-11-12T17:57:09.534Z,3.9
2022-11-12T18:00:09.545Z,3.9
2022-11-12T18:03:09.538Z,3.7
2022-11-12T18:06:09.528Z,3.7
2022-11-12T18:09:09.571Z,3.6
2022-11-12T18:12:09.521Z,3.7
2022-11-12T18:15:09.528Z,3.6
2022-11-12T18:18:09.618Z,3.4
2022-11-12T18:21:09.515Z,3.2
2022-11-12T18:24:09.541Z,3.1
2022-11-12T18:27:09.517Z,3.1
2022-11-12T18:30:10.500Z,2.9
2022-11-12T18:33:09.532Z,2.9
2022-11-12T18:36:09.552Z,3.1
2022-11-12T18:39:09.531Z,3.3
2022-11-12T18:42:09.501Z,3.2
2022-11-12T18:45:09.604Z,3.2
2022-11-12T18:48:09.554Z,3.1
2022-11-12T18:51:09.562Z,3.1
2022-11-12T18:54:09.695Z,2.9
2022-11-12T18:57:09.633Z,2.9
2022-11-12T19:00:09.638Z,2.9
2022-11-12T19:03:09.543Z,2.9
2022-11-12T19:06:09.612Z,2.8
2022-11-12T19:09:09.621Z,2.9
2022-11-12T19:12:09.586Z,3.1
2022-11-12T19:15:09.511Z,3.2
2022-11-12T19:18:09.610Z,3.4
2022-11-12T19:21:09.525Z,3.4
2022-11-12T19:24:10.453Z,3.3
2022-11-12T19:27:09.567Z,3.3
2022-11-12T19:30:12.566Z,3.5
2022-11-12T19:33:09.606Z,3.6
2022-11-12T19:36:15.874Z,3.7
2022-11-12T19:39:09.521Z,3.7
2022-11-12T19:42:09.514Z,3.8
2022-11-12T19:45:09.537Z,3.7
2022-11-12T19:48:09.577Z,3.9
2022-11-12T19:51:09.527Z,3.8
2022-11-12T19:54:09.530Z,3.8
2022-11-12T19:57:09.605Z,3.8
2022-11-12T20:00:09.554Z,3.7
2022-11-12T20:03:09.522Z,3.7
2022-11-12T20:06:09.631Z,3.6
2022-11-12T20:09:09.572Z,3.6
2022-11-12T20:12:09.567Z,3.5
2022-11-12T20:15:09.556Z,3.5
2022-11-12T20:18:09.605Z,3.4
2022-11-12T20:21:09.536Z,3.2
2022-11-12T20:24:09.565Z,3.2
2022-11-12T20:27:10.468Z,3.1
2022-11-12T20:30:09.588Z,3.1
2022-11-12T20:33:09.542Z,3.1
2022-11-12T20:36:09.587Z,3.1
2022-11-12T20:39:09.544Z,3.2
2022-11-12T20:42:09.651Z,3.1
2022-11-12T20:45:09.604Z,3.1
2022-11-12T20:48:09.569Z,3.1
2022-11-12T20:51:33.153Z,3.1
2022-11-12T20:54:10.035Z,3.2
2022-11-12T20:57:09.578Z,3.2
2022-11-12T21:00:14.260Z,3.3
2022-11-12T21:03:09.588Z,3.4
2022-11-12T21:06:09.576Z,3.4
2022-11-12T21:09:09.556Z,3.4
2022-11-12T21:12:09.512Z,3.2
2022-11-12T21:15:09.574Z,3.1
2022-11-12T21:18:09.470Z,3.1
2022-11-12T21:21:09.686Z,3
2022-11-12T21:24:14.207Z,3
2022-11-12T21:27:09.592Z,3
2022-11-12T21:30:09.587Z,2.9
2022-11-12T21:33:09.585Z,2.9
2022-11-12T21:36:16.651Z,2.8
2022-11-12T21:39:09.533Z,2.7
2022-11-12T21:42:09.571Z,2.6
2022-11-12T21:45:09.621Z,2.6
2022-11-12T21:48:09.596Z,2.5
2022-11-12T21:51:09.508Z,2.6
2022-11-12T21:54:09.575Z,2.6
2022-11-12T21:57:09.544Z,2.4
2022-11-12T22:00:50.330Z,2.5
2022-11-12T22:03:09.653Z,2.6
2022-11-12T22:06:09.553Z,2.7
2022-11-12T22:09:09.645Z,2.7
2022-11-12T22:12:09.514Z,2.7
2022-11-12T22:15:09.513Z,2.9
2022-11-12T22:18:09.545Z,3.1
2022-11-12T22:21:09.519Z,3.4
2022-11-12T22:24:09.625Z,3.7
2022-11-12T22:27:14.629Z,3.8
2022-11-12T22:30:09.545Z,4
2022-11-12T22:33:09.577Z,4.3
2022-11-12T22:36:09.576Z,4.4
2022-11-12T22:39:09.547Z,4.4
2022-11-12T22:42:09.594Z,4.4
2022-11-12T22:45:09.561Z,4.3
2022-11-12T22:48:09.596Z,4.4
2022-11-12T22:51:09.913Z,4.3
2022-11-12T22:54:09.612Z,4.3
2022-11-12T22:57:09.492Z,4.4
2022-11-12T23:00:10.006Z,4.4
2022-11-12T23:03:09.573Z,4.4
2022-11-12T23:06:09.606Z,4.5
2022-11-12T23:09:09.531Z,4.6
2022-11-12T23:12:09.651Z,4.6
2022-11-12T23:15:09.680Z,4.5
2022-11-12T23:18:09.618Z,4.5
2022-11-12T23:21:09.523Z,4.5
2022-11-12T23:24:09.625Z,4.4
2022-11-12T23:27:09.511Z,4.4
2022-11-12T23:30:09.546Z,4.4
2022-11-12T23:33:09.658Z,4.3
2022-11-12T23:36:09.535Z,4.3
2022-11-12T23:39:09.480Z,4.2
2022-11-12T23:42:09.554Z,4.2
2022-11-12T23:45:09.564Z,4.2
2022-11-12T23:48:09.582Z,4.1
2022-11-12T23:51:09.570Z,4
2022-11-12T23:54:09.508Z,3.8
2022-11-12T23:57:09.522Z,3.7
